• Join FlightAware (Why Join?)
  • Login
  • US Flag 
01:34AM EDT


 

Airport Tracker/Info


-or-


 

Live Flight TrackerFlight Track Log ✈ KAP927 ✈ 14-Jun-2013 ✈ KALB - KOGS

Flight Track Log - Related Links

Times and Time Zones

All times are in EDT time to prevent confusion due to time zone crossing. See the KAP927 flight status page for this flight to view local times or setup timezone preferences in your user account.

Time Position Orientation Groundspeed Altitude Reporting Facility
EDT Latitude Longitude Course Direction KTS MPH feet Rate Location/Type
02:25PM 42.7797 -73.8092 359° North 112 129 1,300  Level Boston Center
02:26PM 42.8108 -73.8325 331° Northwest 121 139 1,900 600 Climbing Boston Center
02:27PM 42.8333 -73.8586 320° Northwest 120 138 2,500 540 Climbing Boston Center
02:28PM 42.8622 -73.8819 329° Northwest 120 138 3,000 420 Climbing Boston Center
02:29PM 42.8933 -73.9081 328° Northwest 128 147 3,500 480 Climbing Boston Center
02:30PM 42.9200 -73.9342 324° Northwest 130 150 4,000 540 Climbing Boston Center
02:31PM 42.9528 -73.9719 320° Northwest 131 151 4,700 600 Climbing Boston Center
02:32PM 42.9794 -74.0008 322° Northwest 127 146 5,300 600 Climbing Boston Center
02:33PM 43.0022 -74.0242 323° Northwest 124 143 5,800 540 Climbing Boston Center
02:34PM 43.0308 -74.0506 326° Northwest 120 138 6,400 600 Climbing Boston Center
02:35PM 43.0575 -74.0797 321° Northwest 121 139 7,100 600 Climbing Boston Center
02:36PM 43.0822 -74.1058 322° Northwest 117 135 7,700 480 Climbing Boston Center
02:37PM 43.1111 -74.1322 326° Northwest 117 135 8,100 120 Climbing Boston Center
02:38PM 43.1419 -74.1558 331° Northwest 135 155 8,000 -60 Descending Boston Center
02:39PM 43.1811 -74.1797 336° Northwest 172 198 8,000  Level Boston Center
02:40PM 43.2161 -74.2092 328° Northwest 156 180 8,000  Level Boston Center
02:41PM 43.2492 -74.2358 330° Northwest 145 167 8,000  Level Boston Center
02:42PM 43.2861 -74.2656 330° Northwest 145 167 8,000 -60 Level Boston Center
02:43PM 43.3108 -74.2892 325° Northwest 140 161 7,900  Descending Boston Center
02:44PM 43.3539 -74.3217 331° Northwest 145 167 8,000  Climbing Boston Center
02:45PM 43.3847 -74.3483 328° Northwest 145 167 8,000  Level Boston Center
02:46PM 43.4178 -74.3781 327° Northwest 145 167 8,100  Climbing Boston Center
02:47PM 43.4525 -74.4050 331° Northwest 145 167 8,100  Level Boston Center
02:48PM 43.4853 -74.4375 324° Northwest 145 167 8,100  Level Boston Center
02:49PM 43.5206 -74.4617 334° Northwest 145 167 8,100  Level Boston Center
02:50PM 43.5533 -74.4914 327° Northwest 145 167 8,100  Level Boston Center
02:51PM 43.5881 -74.5183 331° Northwest 145 167 8,100  Level Boston Center
02:52PM 43.6211 -74.5453 329° Northwest 145 167 8,100  Level Boston Center
02:53PM 43.6558 -74.5753 328° Northwest 145 167 8,100  Level Boston Center
02:54PM 43.6908 -74.6050 328° Northwest 145 167 8,100  Level Boston Center
02:55PM 43.7256 -74.6350 328° Northwest 145 167 8,100  Level Boston Center
02:56PM 43.7603 -74.6708 323° Northwest 150 173 8,100  Level Boston Center
02:57PM 43.7869 -74.6919 330° Northwest 150 173 8,100  Level Boston Center
02:58PM 43.8303 -74.7253 331° Northwest 150 173 8,100  Level Boston Center
02:59PM 43.8650 -74.7525 331° Northwest 150 173 8,100  Level Boston Center
03:00PM 43.8958 -74.7825 325° Northwest 150 173 8,100 -60 Level Boston Center
03:01PM 43.9408 -74.8161 332° Northwest 150 173 8,000 -60 Descending Boston Center
03:02PM 43.9778 -74.8464 329° Northwest 145 167 8,000 -60 Level Boston Center
03:03PM 44.0083 -74.8794 322° Northwest 145 167 7,900 -300 Descending Boston Center
03:04PM 44.0494 -74.9097 332° Northwest 150 173 7,500 -420 Descending Boston Center
03:05PM 44.0881 -74.9461 326° Northwest 162 186 7,100 -540 Descending Boston Center
03:06PM 44.1269 -74.9825 326° Northwest 167 192 6,500 -600 Descending Boston Center
03:07PM 44.1700 -75.0103 335° Northwest 167 192 6,000 -600 Descending Boston Center
03:08PM 44.2086 -75.0525 322° Northwest 167 192 5,400 -480 Descending Boston Center
03:09PM 44.2456 -75.0803 332° Northwest 167 192 5,100 -240 Descending Boston Center
03:10PM 44.2825 -75.1139 327° Northwest 162 186 5,000 -60 Descending Boston Center
03:11PM 44.3192 -75.1417 332° Northwest 157 181 5,000  Level Boston Center